Time;durP1;ratioP1;P1;durP2;ratioP2;P2;SDS_P1;SDS_P2;PMS_P1;PMS_P2;Temp;Humidity;BMP_temperature;BMP_pressure;BME280_temperature;BME280_humidity;BME280_pressure;Samples;Min_cycle;Max_cycle;Signal;HPM_P1;HPM_P2
2020/12/11 00:00:26;;;;;;;34.67;8.57;;;22.70;30.60;;;;;;5065807;28;20160;-60
2020/12/11 00:02:52;;;;;;;36.83;10.05;;;22.50;30.70;;;;;;5068839;28;20150;-61
2020/12/11 00:05:19;;;;;;;40.08;11.73;;;22.50;31.10;;;;;;5068550;28;20069;-61
2020/12/11 00:07:46;;;;;;;45.22;11.18;;;22.40;31.40;;;;;;5068183;28;20160;-61
2020/12/11 00:10:14;;;;;;;42.28;10.20;;;22.40;32.00;;;;;;5068304;28;20079;-58
2020/12/11 00:12:41;;;;;;;37.13;10.93;;;22.30;32.40;;;;;;5068126;28;20203;-61
2020/12/11 00:15:08;;;;;;;41.00;13.18;;;22.20;32.00;;;;;;5067884;28;20068;-61
2020/12/11 00:17:35;;;;;;;53.92;15.55;;;22.10;31.80;;;;;;5068568;28;20061;-60
2020/12/11 00:20:06;;;;;;;52.63;11.63;;;22.00;32.30;;;;;;5068148;28;20077;-60
2020/12/11 00:22:32;;;;;;;32.67;8.18;;;21.80;33.30;;;;;;5068611;28;20556;-59
2020/12/11 00:24:59;;;;;;;38.22;7.82;;;21.70;33.30;;;;;;5072147;28;20496;-59
2020/12/11 00:27:25;;;;;;;35.13;7.45;;;21.70;33.50;;;;;;5070259;28;20565;-61
2020/12/11 00:29:52;;;;;;;35.20;8.25;;;21.60;33.70;;;;;;5070721;28;20085;-61
2020/12/11 00:32:18;;;;;;;42.08;8.85;;;21.40;34.00;;;;;;5072394;28;20127;-59
2020/12/11 00:34:45;;;;;;;36.15;8.98;;;21.30;34.50;;;;;;5072895;28;20144;-61
2020/12/11 00:37:11;;;;;;;48.80;8.48;;;21.20;34.80;;;;;;5071416;28;20179;-61
2020/12/11 00:39:38;;;;;;;31.75;7.43;;;21.10;35.20;;;;;;5070767;28;20167;-56
2020/12/11 00:42:04;;;;;;;31.17;8.15;;;21.00;35.70;;;;;;5072161;28;20108;-58
2020/12/11 00:44:31;;;;;;;44.03;8.57;;;20.90;36.00;;;;;;5069942;28;20148;-61
2020/12/11 00:47:01;;;;;;;;;;;20.80;36.30;;;;;;5070045;28;20073;-59
2020/12/11 00:49:27;;;;;;;34.83;8.32;;;20.70;36.70;;;;;;5070503;28;20374;-60
2020/12/11 00:51:55;;;;;;;52.35;8.60;;;20.50;37.10;;;;;;5069938;28;20079;-62
2020/12/11 00:54:22;;;;;;;55.88;7.75;;;20.40;37.70;;;;;;5052670;28;20069;-59
2020/12/11 00:56:48;;;;;;;;;;;20.30;37.60;;;;;;5070971;28;20095;-61
2020/12/11 00:59:14;;;;;;;51.15;8.15;;;20.20;38.10;;;;;;5070310;28;19964;-60
2020/12/11 01:01:41;;;;;;;46.17;8.88;;;20.10;38.30;;;;;;5069930;28;20092;-61
2020/12/11 01:04:08;;;;;;;49.83;8.18;;;20.00;38.40;;;;;;5071939;28;20146;-59
2020/12/11 01:06:35;;;;;;;44.83;9.23;;;19.90;38.80;;;;;;5071236;28;20077;-60
2020/12/11 01:09:01;;;;;;;55.88;9.05;;;19.80;39.10;;;;;;5050894;28;20073;-59
2020/12/11 01:11:28;;;;;;;54.05;10.52;;;19.80;39.40;;;;;;5053724;28;20085;-63
2020/12/11 01:13:55;;;;;;;44.17;10.32;;;19.70;39.60;;;;;;5052436;28;20070;-60
2020/12/11 01:16:21;;;;;;;52.20;10.43;;;19.60;39.80;;;;;;5067673;28;20488;-60
2020/12/11 01:18:48;;;;;;;62.63;12.60;;;19.40;39.90;;;;;;5072060;28;20212;-62
2020/12/11 01:21:14;;;;;;;;;;;19.40;40.20;;;;;;5070925;28;20093;-60
2020/12/11 01:23:40;;;;;;;65.72;15.32;;;19.30;40.50;;;;;;5070994;28;20405;-60
2020/12/11 01:26:07;;;;;;;;;;;19.20;40.70;;;;;;5071421;28;20433;-61
2020/12/11 01:28:34;;;;;;;72.97;19.88;;;19.10;40.80;;;;;;5072011;28;20447;-60
2020/12/11 01:31:00;;;;;;;83.07;21.83;;;19.00;41.50;;;;;;5071453;28;20089;-59
2020/12/11 01:33:26;;;;;;;;;;;18.90;41.30;;;;;;5070991;28;20138;-59
2020/12/11 01:35:53;;;;;;;88.57;23.85;;;18.80;41.60;;;;;;5053943;28;20007;-58
2020/12/11 01:38:19;;;;;;;;;;;18.70;41.90;;;;;;5071701;28;20077;-60
2020/12/11 01:40:46;;;;;;;81.10;20.33;;;18.60;42.40;;;;;;5071136;28;20021;-59
2020/12/11 01:43:14;;;;;;;69.00;16.98;;;18.60;42.90;;;;;;5072261;28;20085;-59
2020/12/11 01:45:40;;;;;;;61.00;16.52;;;18.50;43.30;;;;;;5059836;28;20152;-58
2020/12/11 01:48:07;;;;;;;47.92;15.38;;;18.40;43.40;;;;;;5070993;28;20080;-60
2020/12/11 01:50:34;;;;;;;61.50;17.45;;;18.30;43.50;;;;;;5069334;28;20167;-59
2020/12/11 01:53:01;;;;;;;80.10;22.98;;;18.30;43.50;;;;;;5069087;28;20076;-59
2020/12/11 01:55:27;;;;;;;94.40;27.95;;;18.20;43.50;;;;;;5069131;28;20081;-56
2020/12/11 01:57:57;;;;;;;;;;;18.10;43.70;;;;;;5053216;28;20416;-60
2020/12/11 02:00:26;;;;;;;88.10;21.55;;;18.00;43.20;;;;;;5069994;28;19957;-60
2020/12/11 02:03:13;;;;;;;69.70;21.23;;;18.00;43.40;;;;;;5052101;28;20073;-63
2020/12/11 02:05:39;;;;;;;70.43;19.33;;;18.00;43.90;;;;;;5068636;28;20096;-55
2020/12/11 02:08:06;;;;;;;72.45;19.80;;;17.90;44.00;;;;;;5067614;28;20084;-60
2020/12/11 02:10:33;;;;;;;82.32;19.48;;;17.80;44.20;;;;;;5070462;28;20148;-59
2020/12/11 02:13:09;;;;;;;69.55;20.52;;;17.80;43.90;;;;;;5069272;28;20101;-58
2020/12/11 02:15:35;;;;;;;61.55;18.77;;;17.70;44.00;;;;;;5069764;28;20077;-61
2020/12/11 02:18:04;;;;;;;61.15;18.48;;;17.70;44.10;;;;;;5070310;28;20104;-60
2020/12/11 02:20:30;;;;;;;67.82;19.05;;;17.60;43.80;;;;;;5069640;28;20077;-59
2020/12/11 02:22:57;;;;;;;80.63;20.10;;;17.60;43.90;;;;;;5066287;28;20143;-60
2020/12/11 02:25:24;;;;;;;76.63;19.70;;;17.50;43.50;;;;;;5070586;28;20092;-61
2020/12/11 02:27:51;;;;;;;78.70;19.50;;;17.50;43.50;;;;;;5069731;28;20125;-62
2020/12/11 02:30:17;;;;;;;;;;;17.50;42.70;;;;;;5067156;28;20073;-59
2020/12/11 02:32:44;;;;;;;66.80;18.92;;;17.40;43.00;;;;;;5071758;28;19961;-60
2020/12/11 02:35:10;;;;;;;;;;;17.40;43.60;;;;;;5069575;28;20072;-60
2020/12/11 02:37:37;;;;;;;63.58;17.65;;;17.40;43.70;;;;;;5068888;28;19993;-60
2020/12/11 02:40:06;;;;;;;69.95;17.17;;;17.30;43.30;;;;;;5070193;28;20069;-61
2020/12/11 02:42:32;;;;;;;69.13;16.08;;;17.30;43.10;;;;;;5066958;28;20100;-58
2020/12/11 02:45:00;;;;;;;68.72;17.38;;;17.30;43.30;;;;;;5068971;28;20076;-60
2020/12/11 02:47:26;;;;;;;61.22;15.48;;;17.20;44.20;;;;;;5070448;28;20601;-58
2020/12/11 02:49:53;;;;;;;100.28;16.73;;;17.10;43.20;;;;;;5073255;28;20211;-60
2020/12/11 02:52:19;;;;;;;;;;;17.10;43.40;;;;;;5068486;28;20441;-62
2020/12/11 02:54:46;;;;;;;80.00;15.40;;;17.10;43.40;;;;;;5067610;28;19993;-62
2020/12/11 02:57:13;;;;;;;66.93;15.25;;;17.10;43.70;;;;;;5068487;28;20069;-61
2020/12/11 02:59:39;;;;;;;59.33;16.52;;;17.10;43.60;;;;;;5050223;28;20429;-62
2020/12/11 03:02:06;;;;;;;;;;;17.00;43.50;;;;;;5073243;28;20683;-61
2020/12/11 03:04:32;;;;;;;100.25;22.30;;;16.90;43.60;;;;;;5069173;28;19957;-61
2020/12/11 03:06:59;;;;;;;86.55;25.73;;;16.90;43.90;;;;;;5070637;28;20137;-61
2020/12/11 03:09:25;;;;;;;;;;;16.90;44.30;;;;;;5073793;28;20529;-61
2020/12/11 03:11:52;;;;;;;65.38;17.88;;;16.90;45.00;;;;;;5071630;28;20047;-59
2020/12/11 03:14:18;;;;;;;;;;;16.90;45.40;;;;;;5067443;28;20089;-57
2020/12/11 03:16:44;;;;;;;56.22;14.30;;;16.90;45.80;;;;;;5071483;28;19964;-60
2020/12/11 03:19:11;;;;;;;53.08;13.23;;;17.00;46.00;;;;;;5049121;28;20552;-60
2020/12/11 03:21:38;;;;;;;60.33;14.65;;;17.00;46.30;;;;;;5068728;28;20449;-59
2020/12/11 03:24:04;;;;;;;;;;;17.00;46.60;;;;;;5068083;28;20072;-61
2020/12/11 03:26:32;;;;;;;60.15;13.52;;;17.00;46.90;;;;;;5068725;28;19957;-61
2020/12/11 03:28:59;;;;;;;55.33;14.70;;;16.90;47.10;;;;;;5068883;28;21614;-60
2020/12/11 03:31:27;;;;;;;59.90;15.30;;;16.90;47.40;;;;;;5069357;28;20405;-62
2020/12/11 03:33:56;;;;;;;44.13;14.02;;;16.90;47.70;;;;;;5051650;28;20552;-60
2020/12/11 03:36:22;;;;;;;67.30;16.73;;;16.90;47.90;;;;;;5069607;28;20536;-57
2020/12/11 03:38:49;;;;;;;;;;;16.80;47.80;;;;;;5068736;28;20160;-57
2020/12/11 03:41:18;;;;;;;54.67;16.02;;;16.80;47.90;;;;;;5069148;28;20429;-59
2020/12/11 03:43:45;;;;;;;87.32;21.15;;;16.70;48.30;;;;;;5067963;28;20081;-60
2020/12/11 03:46:18;;;;;;;;;;;16.70;48.20;;;;;;5069008;28;20073;-60
2020/12/11 03:48:45;;;;;;;74.47;19.95;;;16.60;48.20;;;;;;5067096;28;20383;-61
2020/12/11 03:51:21;;;;;;;67.35;20.45;;;16.60;48.30;;;;;;5068141;28;20080;-61
2020/12/11 03:53:47;;;;;;;67.93;19.52;;;16.60;48.60;;;;;;5069304;28;20077;-61
2020/12/11 03:56:16;;;;;;;66.28;17.83;;;16.50;48.60;;;;;;5068746;28;20069;-59
2020/12/11 03:58:46;;;;;;;59.00;16.98;;;16.40;48.50;;;;;;5070252;28;20077;-60
2020/12/11 04:01:14;;;;;;;66.10;18.63;;;16.40;48.70;;;;;;5068112;28;20092;-61
2020/12/11 04:03:42;;;;;;;68.38;23.02;;;16.40;48.90;;;;;;5069259;28;20440;-60
2020/12/11 04:06:10;;;;;;;71.25;24.40;;;16.40;49.10;;;;;;5068800;28;20076;-61
2020/12/11 04:08:38;;;;;;;70.88;24.10;;;16.40;49.30;;;;;;5068123;28;20085;-60
2020/12/11 04:11:06;;;;;;;69.15;23.15;;;16.40;49.40;;;;;;5069073;28;20096;-60
2020/12/11 04:13:36;;;;;;;61.00;19.77;;;16.20;49.50;;;;;;5051922;28;20100;-58
2020/12/11 04:16:04;;;;;;;67.05;18.75;;;16.20;49.90;;;;;;5068134;28;20076;-59
2020/12/11 04:18:31;;;;;;;59.55;17.65;;;16.20;50.00;;;;;;5049176;28;20692;-60
2020/12/11 04:20:58;;;;;;;50.67;16.08;;;16.20;50.30;;;;;;5048240;28;20093;-59
2020/12/11 04:23:28;;;;;;;51.60;15.73;;;16.10;50.10;;;;;;5067792;28;20585;-61
2020/12/11 04:25:55;;;;;;;61.45;15.07;;;16.10;50.20;;;;;;5049373;28;20081;-61
2020/12/11 04:28:22;;;;;;;62.50;16.60;;;16.00;50.40;;;;;;5067936;28;20105;-61
2020/12/11 04:30:49;;;;;;;53.97;16.67;;;16.00;50.70;;;;;;5068805;28;20171;-60
2020/12/11 04:33:15;;;;;;;55.55;15.88;;;15.90;50.80;;;;;;5068447;28;20065;-60
2020/12/11 04:35:42;;;;;;;59.80;16.85;;;15.80;51.00;;;;;;5050748;28;20119;-60
2020/12/11 04:38:08;;;;;;;;;;;15.80;50.90;;;;;;5070216;28;20582;-56
2020/12/11 04:40:35;;;;;;;59.30;15.95;;;15.60;50.90;;;;;;5067072;28;19956;-60
2020/12/11 04:43:03;;;;;;;;;;;15.60;50.90;;;;;;5068291;28;20111;-59
2020/12/11 04:45:31;;;;;;;59.28;16.92;;;15.60;51.10;;;;;;5066724;28;20376;-59
2020/12/11 04:48:00;;;;;;;71.53;17.40;;;15.60;51.80;;;;;;5067548;28;20117;-60
2020/12/11 04:50:28;;;;;;;64.18;16.58;;;15.50;51.20;;;;;;5066988;28;20077;-60
2020/12/11 04:52:57;;;;;;;57.05;16.15;;;15.50;51.20;;;;;;5068059;28;20074;-60
2020/12/11 04:55:23;;;;;;;51.35;15.85;;;15.50;51.20;;;;;;5068644;28;20080;-60
2020/12/11 04:57:51;;;;;;;;;;;15.50;51.40;;;;;;5066624;28;20077;-59
2020/12/11 05:00:20;;;;;;;53.40;15.13;;;15.40;51.90;;;;;;5068724;28;19957;-59
2020/12/11 05:02:47;;;;;;;73.15;15.90;;;15.40;52.20;;;;;;5066450;28;20105;-61
2020/12/11 05:05:15;;;;;;;57.00;15.40;;;15.30;52.10;;;;;;5066526;28;20073;-61
2020/12/11 05:07:42;;;;;;;44.30;14.30;;;15.30;52.10;;;;;;5068185;28;20081;-61
2020/12/11 05:10:10;;;;;;;67.25;15.45;;;15.20;51.80;;;;;;5070939;28;20069;-62
2020/12/11 05:12:50;;;;;;;70.43;14.93;;;15.10;52.40;;;;;;5071013;28;20065;-62
2020/12/11 05:15:19;;;;;;;62.78;16.52;;;15.20;52.10;;;;;;5053647;28;20077;-58
2020/12/11 05:17:45;;;;;;;49.40;14.52;;;15.20;51.90;;;;;;5070888;28;20083;-61
2020/12/11 05:20:12;;;;;;;67.25;17.13;;;15.10;52.00;;;;;;5039944;28;20573;-59
2020/12/11 05:22:40;;;;;;;62.72;17.25;;;15.10;51.90;;;;;;5070446;28;20104;-60
2020/12/11 05:25:13;;;;;;;61.97;16.38;;;15.10;52.20;;;;;;5071136;28;20468;-61
2020/12/11 05:27:42;;;;;;;65.07;15.93;;;15.10;52.20;;;;;;5070498;28;20726;-62
2020/12/11 05:30:18;;;;;;;55.55;16.13;;;15.10;52.50;;;;;;5071260;28;20077;-62
2020/12/11 05:32:48;;;;;;;62.17;15.60;;;15.00;52.60;;;;;;5070157;28;20171;-62
2020/12/11 05:35:18;;;;;;;51.97;14.23;;;15.00;52.90;;;;;;5069900;28;20076;-58
2020/12/11 05:37:48;;;;;;;39.38;13.57;;;15.00;53.10;;;;;;5068946;28;20081;-60
2020/12/11 05:40:28;;;;;;;54.05;15.35;;;14.90;53.30;;;;;;5070774;28;20070;-61
2020/12/11 05:43:10;;;;;;;46.97;13.90;;;14.90;53.70;;;;;;5070273;28;20641;-61
2020/12/11 05:45:39;;;;;;;60.78;15.18;;;14.80;53.80;;;;;;5070196;28;20437;-60
2020/12/11 05:48:06;;;;;;;55.67;15.35;;;14.80;54.20;;;;;;5071394;28;20111;-57
2020/12/11 05:50:34;;;;;;;50.65;17.02;;;14.80;54.40;;;;;;5070976;28;20079;-58
2020/12/11 05:53:01;;;;;;;58.67;19.48;;;14.80;54.90;;;;;;5067078;28;20154;-62
2020/12/11 05:55:28;;;;;;;50.05;16.58;;;14.80;55.20;;;;;;5069572;28;20437;-58
2020/12/11 05:57:56;;;;;;;57.83;16.48;;;14.80;55.30;;;;;;5070816;28;20155;-60
2020/12/11 06:00:23;;;;;;;46.78;17.02;;;14.70;55.60;;;;;;5071114;28;20077;-60
2020/12/11 06:02:52;;;;;;;61.67;17.15;;;14.70;55.80;;;;;;5068622;28;20562;-61
2020/12/11 06:05:24;;;;;;;54.30;17.42;;;14.60;56.00;;;;;;5052774;28;20073;-59
2020/12/11 06:07:52;;;;;;;47.42;17.02;;;14.60;56.10;;;;;;5069816;28;20518;-60
2020/12/11 06:10:21;;;;;;;51.63;15.55;;;14.60;57.30;;;;;;5069580;28;20088;-61
2020/12/11 06:12:48;;;;;;;44.08;13.80;;;14.60;56.90;;;;;;5067312;28;20528;-60
2020/12/11 06:15:30;;;;;;;40.67;13.80;;;14.50;57.10;;;;;;5071626;28;20096;-59
2020/12/11 06:18:11;;;;;;;39.20;12.88;;;14.50;57.20;;;;;;5071789;28;20168;-61
2020/12/11 06:20:38;;;;;;;39.53;11.80;;;14.50;57.30;;;;;;5069230;28;20092;-58
2020/12/11 06:23:28;;;;;;;34.30;10.98;;;14.50;57.40;;;;;;5069009;28;20620;-60
2020/12/11 06:26:00;;;;;;;33.65;10.52;;;14.40;57.60;;;;;;5069240;28;20161;-62
2020/12/11 06:28:36;;;;;;;39.95;9.93;;;14.40;57.20;;;;;;5071063;28;20565;-61
2020/12/11 06:31:13;;;;;;;36.90;9.48;;;14.40;57.10;;;;;;5069201;28;20536;-62
2020/12/11 06:33:47;;;;;;;34.22;8.60;;;14.40;57.10;;;;;;5071946;28;20157;-62
2020/12/11 06:36:15;;;;;;;36.15;8.95;;;14.40;57.50;;;;;;5068430;28;20094;-60
2020/12/11 06:38:59;;;;;;;28.20;8.63;;;14.40;57.60;;;;;;5071578;28;20590;-57
2020/12/11 06:41:29;;;;;;;27.30;9.27;;;14.40;58.40;;;;;;5068937;28;20112;-62
2020/12/11 06:44:13;;;;;;;30.23;8.95;;;14.30;57.80;;;;;;5069091;28;20087;-60
2020/12/11 06:46:39;;;;;;;24.90;8.00;;;14.30;57.50;;;;;;5051643;28;20088;-60
2020/12/11 06:49:22;;;;;;;29.90;7.50;;;14.30;57.20;;;;;;5066862;28;20152;-60
2020/12/11 06:51:48;;;;;;;25.88;7.32;;;14.30;57.00;;;;;;5051375;28;20082;-59
2020/12/11 06:54:24;;;;;;;27.92;7.95;;;14.30;57.00;;;;;;5069952;28;20073;-62
2020/12/11 06:56:55;;;;;;;33.85;8.45;;;14.30;57.20;;;;;;5084410;28;20108;-59
2020/12/11 06:59:25;;;;;;;28.05;7.95;;;14.20;57.00;;;;;;5061973;28;20073;-62
2020/12/11 07:01:56;;;;;;;24.38;8.10;;;14.10;57.10;;;;;;5065489;28;20166;-61
2020/12/11 07:04:23;;;;;;;25.85;7.75;;;14.10;57.40;;;;;;5067396;28;20143;-59
2020/12/11 07:06:54;;;;;;;23.90;7.00;;;14.10;57.80;;;;;;5066089;28;20069;-60
2020/12/11 07:09:21;;;;;;;30.00;8.10;;;14.10;57.70;;;;;;5066958;28;20092;-61
2020/12/11 07:11:48;;;;;;;26.88;8.25;;;14.10;57.60;;;;;;5066532;28;20080;-60
2020/12/11 07:14:15;;;;;;;33.78;8.95;;;14.00;57.70;;;;;;5062337;28;20122;-60
2020/12/11 07:16:45;;;;;;;29.17;8.10;;;14.00;57.80;;;;;;5064476;28;20092;-58
2020/12/11 07:19:12;;;;;;;27.00;9.27;;;14.00;57.80;;;;;;5058516;28;20074;-59
2020/12/11 07:21:40;;;;;;;37.53;10.52;;;13.90;58.20;;;;;;5066637;28;20131;-61
2020/12/11 07:24:08;;;;;;;46.92;11.27;;;13.90;58.00;;;;;;5060526;28;20096;-60
2020/12/11 07:26:35;;;;;;;38.45;10.70;;;13.90;58.40;;;;;;5056848;28;20085;-59
2020/12/11 07:29:10;;;;;;;27.85;9.60;;;13.80;58.20;;;;;;5060094;28;20085;-60
2020/12/11 07:31:41;;;;;;;33.33;9.85;;;13.70;58.50;;;;;;5067454;28;20077;-60
2020/12/11 07:34:15;;;;;;;33.05;9.18;;;13.70;58.50;;;;;;5052000;28;20101;-60
2020/12/11 07:36:44;;;;;;;26.58;9.25;;;13.70;58.70;;;;;;5066988;28;20424;-61
2020/12/11 07:39:15;;;;;;;25.65;7.93;;;13.70;59.10;;;;;;5069320;28;20081;-58
2020/12/11 07:41:46;;;;;;;35.10;9.98;;;13.50;59.00;;;;;;5066537;28;20184;-59
2020/12/11 07:44:28;;;;;;;40.90;13.32;;;13.60;59.10;;;;;;5050767;28;20076;-61
2020/12/11 07:47:09;;;;;;;38.78;12.93;;;13.60;59.00;;;;;;5048976;28;20073;-60
2020/12/11 07:49:46;;;;;;;31.52;11.82;;;13.60;59.00;;;;;;5065590;28;20107;-60
2020/12/11 07:52:22;;;;;;;28.17;10.77;;;13.60;59.00;;;;;;5068593;28;20076;-60
2020/12/11 07:54:49;;;;;;;23.73;9.45;;;13.50;58.90;;;;;;5080558;28;20115;-61
2020/12/11 07:57:16;;;;;;;;;;;13.50;59.30;;;;;;5068199;28;20104;-57
2020/12/11 07:59:57;;;;;;;30.92;8.27;;;13.50;59.50;;;;;;5066037;28;19956;-60
2020/12/11 08:02:28;;;;;;;27.42;7.57;;;13.40;59.50;;;;;;5066914;28;20107;-59
2020/12/11 08:04:54;;;;;;;22.55;6.53;;;13.40;59.30;;;;;;5068177;28;20081;-60
2020/12/11 08:07:29;;;;;;;23.77;6.65;;;13.40;59.30;;;;;;5066300;28;20109;-60
2020/12/11 08:10:13;;;;;;;22.63;7.68;;;13.30;59.70;;;;;;5066524;28;20084;-61
2020/12/11 08:12:41;;;;;;;28.58;8.38;;;13.30;59.70;;;;;;5066592;28;20107;-61
2020/12/11 08:15:09;;;;;;;33.22;7.80;;;13.20;59.70;;;;;;5068379;28;20077;-58
2020/12/11 08:17:37;;;;;;;35.60;7.47;;;13.20;59.80;;;;;;5065574;28;20139;-61
2020/12/11 08:20:06;;;;;;;29.98;7.78;;;13.10;59.90;;;;;;5051218;28;20529;-60
2020/12/11 08:22:43;;;;;;;34.50;8.02;;;13.10;60.30;;;;;;5067200;28;20101;-58
2020/12/11 08:25:27;;;;;;;21.45;7.25;;;13.10;60.80;;;;;;5033981;28;20122;-61
2020/12/11 08:28:04;;;;;;;28.52;8.18;;;13.00;61.00;;;;;;5048785;28;20113;-60
2020/12/11 08:30:35;;;;;;;29.42;7.63;;;12.90;61.30;;;;;;5050466;28;20459;-60
2020/12/11 08:33:13;;;;;;;20.60;7.13;;;12.80;61.70;;;;;;5050085;28;20185;-61
2020/12/11 08:35:39;;;;;;;20.58;6.75;;;12.90;61.90;;;;;;5050626;28;20081;-60
2020/12/11 08:38:10;;;;;;;;;;;12.90;61.90;;;;;;5069805;28;20152;-61
2020/12/11 08:40:49;;;;;;;25.92;6.93;;;12.80;62.00;;;;;;5051260;28;20005;-59
2020/12/11 08:43:35;;;;;;;20.60;7.10;;;12.80;62.40;;;;;;5068525;28;20163;-61
2020/12/11 08:46:27;;;;;;;23.67;7.10;;;12.80;62.80;;;;;;5071695;28;20077;-63
2020/12/11 08:51:25;;;;;;;33.63;8.13;;;12.70;63.00;;;;;;5054792;28;20425;-60
2020/12/11 08:53:55;;;;;;;30.38;7.20;;;12.70;63.10;;;;;;5070898;28;20103;-60
2020/12/11 08:56:25;;;;;;;32.35;7.53;;;12.70;63.10;;;;;;5054600;28;20084;-60
2020/12/11 08:58:51;;;;;;;24.17;7.55;;;12.70;64.00;;;;;;5055403;28;20222;-60
2020/12/11 09:01:18;;;;;;;29.65;7.30;;;12.60;64.10;;;;;;5053138;28;20097;-58
2020/12/11 09:03:44;;;;;;;;;;;12.70;64.20;;;;;;5071008;28;20081;-60
2020/12/11 09:06:11;;;;;;;27.80;8.25;;;12.60;64.10;;;;;;5084573;28;19969;-60
2020/12/11 09:08:37;;;;;;;31.75;9.63;;;12.60;64.30;;;;;;5055065;28;20105;-60
2020/12/11 09:11:04;;;;;;;;;;;12.60;64.90;;;;;;5070916;28;20073;-60
2020/12/11 09:13:30;;;;;;;29.50;9.30;;;12.50;64.80;;;;;;5069178;28;20035;-59
2020/12/11 09:15:57;;;;;;;30.42;9.20;;;12.40;65.10;;;;;;5053201;28;20073;-59
2020/12/11 09:18:24;;;;;;;35.17;9.20;;;12.40;64.90;;;;;;5054640;28;20468;-60
2020/12/11 09:20:51;;;;;;;38.38;9.13;;;12.40;64.40;;;;;;5071654;28;20135;-58
2020/12/11 09:23:18;;;;;;;33.80;9.52;;;12.30;64.50;;;;;;5069884;28;20432;-59
2020/12/11 09:25:44;;;;;;;;;;;12.30;64.70;;;;;;5072025;28;20426;-59
2020/12/11 09:28:17;;;;;;;48.58;11.77;;;12.30;65.00;;;;;;5088459;28;19985;-60
2020/12/11 09:30:45;;;;;;;48.00;12.48;;;12.20;65.60;;;;;;5070055;28;20103;-60
2020/12/11 09:33:16;;;;;;;41.22;12.02;;;12.20;65.80;;;;;;5071946;28;20101;-58
2020/12/11 09:35:43;;;;;;;45.65;13.40;;;12.10;65.80;;;;;;5070702;28;20081;-58
2020/12/11 09:38:09;;;;;;;57.63;15.73;;;12.10;66.10;;;;;;5073560;28;20464;-56
2020/12/11 09:45:59;;;;;;;57.95;18.50;;;12.10;65.60;;;;;;5069973;28;20084;-62
2020/12/11 09:48:35;;;;;;;59.30;19.65;;;12.00;65.50;;;;;;5069710;28;20148;-59
2020/12/11 09:51:16;;;;;;;62.42;21.17;;;11.90;65.50;;;;;;5070167;28;20096;-60
2020/12/11 09:54:08;;;;;;;76.10;22.42;;;12.00;65.50;;;;;;5052800;28;20069;-59
2020/12/11 09:56:35;;;;;;;74.78;23.50;;;12.00;65.50;;;;;;5069259;28;20081;-60
2020/12/11 09:59:09;;;;;;;70.75;26.10;;;11.90;66.30;;;;;;5069053;28;20076;-61
2020/12/11 10:04:08;;;;;;;80.45;29.15;;;11.80;66.30;;;;;;5069914;28;20468;-59
2020/12/11 10:06:34;;;;;;;79.55;29.20;;;11.80;66.30;;;;;;5069669;28;20164;-57
2020/12/11 10:09:01;;;;;;;83.03;29.83;;;11.80;66.30;;;;;;5069482;28;20580;-60
2020/12/11 10:11:28;;;;;;;80.68;30.77;;;11.70;66.30;;;;;;5054276;28;20101;-58
2020/12/11 10:14:11;;;;;;;;;;;11.70;66.70;;;;;;5068098;28;20077;-60
2020/12/11 10:16:38;;;;;;;95.85;34.60;;;11.70;66.60;;;;;;5052157;28;19961;-61
2020/12/11 10:19:04;;;;;;;;;;;11.60;66.70;;;;;;5051371;28;20070;-61
2020/12/11 10:21:31;;;;;;;99.53;35.30;;;11.60;66.80;;;;;;5068180;28;19981;-60
2020/12/11 10:23:57;;;;;;;97.15;37.80;;;11.50;66.80;;;;;;5067424;28;20070;-58
2020/12/11 10:26:24;;;;;;;;;;;11.50;67.40;;;;;;5066262;28;20096;-59
2020/12/11 10:28:51;;;;;;;99.65;37.22;;;11.50;67.60;;;;;;5068140;28;20063;-59
2020/12/11 10:31:18;;;;;;;101.05;37.80;;;11.50;67.60;;;;;;5052093;28;21569;-59
2020/12/11 10:33:45;;;;;;;98.70;39.17;;;11.50;68.10;;;;;;5068980;28;20081;-60
2020/12/11 10:36:12;;;;;;;107.40;39.33;;;11.50;67.90;;;;;;5068622;28;20513;-60
2020/12/11 10:38:39;;;;;;;105.68;39.10;;;11.40;68.20;;;;;;5057905;28;20084;-59
2020/12/11 10:41:06;;;;;;;106.13;38.88;;;11.30;68.70;;;;;;5050357;28;20117;-61
2020/12/11 10:43:32;;;;;;;110.82;40.25;;;11.40;68.90;;;;;;5070861;28;20168;-59
2020/12/11 10:45:59;;;;;;;;;;;11.30;68.20;;;;;;5070407;28;20084;-60
2020/12/11 10:48:26;;;;;;;106.88;40.08;;;11.30;68.30;;;;;;5070513;28;19979;-61
2020/12/11 10:50:52;;;;;;;129.80;42.85;;;11.30;68.30;;;;;;5070035;28;20473;-60
2020/12/11 10:53:18;;;;;;;;;;;11.30;68.40;;;;;;5070501;28;20088;-60
2020/12/11 10:55:45;;;;;;;136.63;43.95;;;11.20;68.40;;;;;;5068370;28;19996;-59
2020/12/11 10:58:11;;;;;;;;;;;11.20;68.00;;;;;;5053310;28;20601;-60
2020/12/11 11:00:38;;;;;;;118.10;47.33;;;11.10;68.20;;;;;;5052078;28;19992;-59
2020/12/11 11:03:04;;;;;;;;;;;11.00;68.50;;;;;;5086768;28;20541;-60
2020/12/11 11:05:31;;;;;;;132.45;50.40;;;11.00;68.40;;;;;;5088828;28;19996;-59
2020/12/11 11:07:57;;;;;;;;;;;11.00;68.50;;;;;;5087740;28;20123;-58
2020/12/11 11:10:41;;;;;;;128.27;54.90;;;10.90;69.20;;;;;;5068568;28;20056;-59
2020/12/11 11:13:19;;;;;;;144.40;53.25;;;10.90;69.20;;;;;;5067926;28;20073;-59
2020/12/11 11:15:54;;;;;;;142.77;54.50;;;10.90;69.10;;;;;;5068272;28;20156;-59
2020/12/11 11:18:56;;;;;;;136.30;52.92;;;10.80;69.40;;;;;;5068837;28;20134;-58
2020/12/11 11:26:20;;;;;;;;;;;10.90;68.80;;;;;;5072004;28;20080;-61
2020/12/11 11:28:47;;;;;;;143.60;51.97;;;10.90;68.70;;;;;;5071031;28;20409;-59
2020/12/11 11:31:13;;;;;;;;;;;10.90;68.40;;;;;;5069924;28;20071;-57
2020/12/11 11:33:39;;;;;;;133.27;52.15;;;10.80;68.60;;;;;;5065944;28;19965;-59
2020/12/11 11:36:06;;;;;;;137.00;54.55;;;10.90;68.70;;;;;;5063838;28;20092;-61
2020/12/11 11:38:32;;;;;;;;;;;10.80;68.60;;;;;;5060884;28;20407;-58
2020/12/11 11:40:59;;;;;;;141.00;51.83;;;10.80;68.80;;;;;;5067822;28;20009;-60
2020/12/11 11:46:20;;;;;;;138.65;52.13;;;10.80;69.30;;;;;;5046161;28;19957;-60
2020/12/11 11:48:47;;;;;;;;;;;10.70;69.50;;;;;;5054037;28;20077;-57
2020/12/11 11:51:21;;;;;;;134.18;54.13;;;10.60;69.40;;;;;;5068206;28;19957;-60
2020/12/11 11:53:47;;;;;;;134.95;53.10;;;10.60;69.80;;;;;;5074117;28;20073;-56
2020/12/11 11:56:20;;;;;;;144.70;55.47;;;10.60;69.90;;;;;;5069131;28;20087;-59
2020/12/11 11:58:46;;;;;;;153.68;55.13;;;10.60;70.10;;;;;;5067452;28;20077;-58
2020/12/11 12:01:14;;;;;;;135.25;54.20;;;10.50;70.00;;;;;;5068221;28;20552;-59
2020/12/11 12:03:41;;;;;;;148.68;55.00;;;10.50;70.00;;;;;;5068564;28;20077;-59
2020/12/11 12:06:07;;;;;;;136.95;53.78;;;10.40;70.50;;;;;;5068415;28;20088;-56
2020/12/11 12:08:33;;;;;;;;;;;10.40;71.10;;;;;;5084730;28;20535;-59
2020/12/11 12:11:00;;;;;;;124.85;53.20;;;10.30;71.90;;;;;;5085786;28;19972;-60
2020/12/11 12:13:26;;;;;;;141.75;56.20;;;10.30;72.10;;;;;;5070391;28;20450;-64
2020/12/11 12:15:55;;;;;;;;;;;10.30;72.50;;;;;;5053891;28;20087;-58
2020/12/11 12:18:21;;;;;;;145.05;55.97;;;10.20;72.90;;;;;;5060946;28;19964;-60
2020/12/11 12:28:53;;;;;;;156.40;58.40;;;10.20;73.20;;;;;;5054270;28;20031;-58
2020/12/11 12:31:18;;;;;;;146.20;61.60;;;10.20;73.00;;;;;;5048281;28;20084;-60
2020/12/11 12:44:38;;;;;;;138.43;62.42;;;10.30;71.90;;;;;;5050437;28;20425;-58
2020/12/11 12:47:05;;;;;;;152.18;63.53;;;10.20;71.70;;;;;;5048532;28;20073;-59
2020/12/11 12:49:31;;;;;;;155.43;63.53;;;10.20;70.80;;;;;;5049937;28;20077;-57
2020/12/11 12:51:58;;;;;;;147.00;61.63;;;10.20;71.40;;;;;;5049870;28;20073;-58
2020/12/11 12:54:25;;;;;;;;;;;10.20;71.70;;;;;;5048598;28;20078;-58
2020/12/11 12:56:55;;;;;;;152.75;64.45;;;10.20;71.50;;;;;;5048526;28;19958;-59
2020/12/11 13:07:10;;;;;;;154.52;67.07;;;10.10;72.90;;;;;;5050360;28;20115;-59
2020/12/11 13:09:36;;;;;;;165.82;69.80;;;10.10;72.80;;;;;;5048487;28;20074;-60
2020/12/11 13:12:03;;;;;;;;;;;10.00;72.60;;;;;;5050132;28;20153;-58
2020/12/11 13:14:30;;;;;;;152.15;68.13;;;10.00;72.50;;;;;;5049778;28;19964;-59
2020/12/11 13:16:56;;;;;;;172.02;70.65;;;9.90;72.70;;;;;;5052973;28;20146;-59
2020/12/11 13:19:25;;;;;;;;;;;9.90;72.90;;;;;;5049123;28;20085;-60
2020/12/11 13:22:07;;;;;;;171.63;72.63;;;9.90;73.00;;;;;;5048372;28;20127;-60
2020/12/11 13:27:23;;;;;;;165.88;70.80;;;9.80;74.60;;;;;;5050895;28;20656;-60
2020/12/11 13:29:52;;;;;;;171.48;69.05;;;9.80;74.70;;;;;;5035489;28;20073;-58
2020/12/11 13:32:20;;;;;;;160.88;73.93;;;9.80;74.20;;;;;;5054368;28;20108;-58
2020/12/11 13:34:47;;;;;;;164.05;71.80;;;9.80;74.20;;;;;;5058043;28;20073;-58
2020/12/11 13:37:14;;;;;;;152.73;72.10;;;9.90;74.40;;;;;;5053609;28;20411;-57